Погода Сан-Дезидериуна неделю

Баия, Бразилия

23 - 29 июля
  • 23июля
    Сегодня
    +16°
    +29°
    Ясно и безоблачно
    ВремяПогодаТемператураВлажностьДавлениеВетер, м/сВероятность осадков
    00:00Небольшая облачность+20°C47 %717 мм3.0 м/с5 %
    03:00Небольшая облачность+18°C62 %716 мм2.1 м/с5 %
    06:00Ясно и безоблачно+16°C71 %717 мм1.6 м/с5 %
    09:00Ясно и безоблачно+21°C56 %719 мм0.6 м/с5 %
    12:00Ясно и безоблачно+27°C34 %718 мм2.9 м/с5 %
    15:00Ясно и безоблачно+29°C28 %716 мм2.8 м/с5 %
    18:00Ясно и безоблачно+24°C34 %715 мм2.2 м/с5 %
    21:00Ясно и безоблачно+21°C42 %717 мм1.8 м/с5 %
  • 24июля
    Среда
    +14°
    +30°
    Ясно и безоблачно
    ВремяПогодаТемператураВлажностьДавлениеВетер, м/сВероятность осадков
    00:00Ясно и безоблачно+18°C50 %717 мм3.5 м/с5 %
    03:00Ясно и безоблачно+20°C49 %716 мм3.1 м/с5 %
    06:00Ясно и безоблачно+16°C58 %717 мм2.1 м/с5 %
    09:00Ясно и безоблачно+22°C47 %719 мм0.7 м/с5 %
    12:00Ясно и безоблачно+28°C31 %719 мм2.0 м/с5 %
    15:00Ясно и безоблачно+30°C26 %716 мм2.0 м/с5 %
    18:00Ясно и безоблачно+24°C33 %716 мм1.5 м/с5 %
    21:00Ясно и безоблачно+20°C45 %717 мм1.4 м/с5 %
  • 25июля
    Четверг
    +13°
    +28°
    Ясно и безоблачно
    ВремяПогодаТемператураВлажностьДавлениеВетер, м/сВероятность осадков
    00:00Ясно и безоблачно+18°C50 %717 мм1.9 м/с5 %
    03:00Ясно и безоблачно+18°C60 %717 мм2.1 м/с5 %
    06:00Ясно и безоблачно+15°C74 %717 мм2.0 м/с5 %
    09:00Ясно и безоблачно+22°C53 %719 мм0.6 м/с5 %
    12:00Ясно и безоблачно+26°C33 %718 мм1.5 м/с5 %
    15:00Ясно и безоблачно+28°C28 %715 мм1.4 м/с5 %
    18:00Ясно и безоблачно+23°C34 %715 мм1.5 м/с5 %
    21:00Ясно и безоблачно+22°C53 %716 мм1.1 м/с5 %
  • 26июля
    Пятница
    +17°
    +30°
    Ясно и безоблачно
    ВремяПогодаТемператураВлажностьДавлениеВетер, м/сВероятность осадков
    00:00Ясно и безоблачно+18°C56 %715 мм2.0 м/с5 %
    03:00Ясно и безоблачно+15°C61 %715 мм1.5 м/с5 %
    06:00Ясно и безоблачно+13°C72 %715 мм1.5 м/с5 %
    09:00Ясно и безоблачно+21°C51 %718 мм0.3 м/с5 %
    12:00Ясно и безоблачно+27°C33 %717 мм1.9 м/с5 %
    15:00Ясно и безоблачно+29°C26 %715 мм2.3 м/с5 %
    18:00Ясно и безоблачно+25°C26 %715 мм2.2 м/с5 %
    21:00Ясно и безоблачно+21°C37 %716 мм1.9 м/с5 %
Мы используем cookies
Соглашаюсь